Time;durP1;ratioP1;P1;durP2;ratioP2;P2;SDS_P1;SDS_P2;PMS_P1;PMS_P2;Temp;Humidity;BMP_temperature;BMP_pressure;BME280_temperature;BME280_humidity;BME280_pressure;Samples;Min_cycle;Max_cycle;Signal;HPM_P1;HPM_P2
2022/10/01 00:01:56;;;;;;;;;3.00;3.00;;;;;13.11;82.36;100138.34;5077193;27;45389;-59
2022/10/01 00:04:22;;;;;;;;;3.00;3.00;;;;;13.17;82.44;100148.59;5077124;27;45394;-63
2022/10/01 00:06:48;;;;;;;;;2.67;2.67;;;;;13.21;82.07;100155.44;5077371;28;45322;-64
2022/10/01 00:09:13;;;;;;;;;2.33;2.33;;;;;13.24;81.59;100165.88;5076884;28;45247;-60
2022/10/01 00:11:40;;;;;;;;;3.33;2.67;;;;;13.23;81.54;100153.50;5077083;27;45223;-64
2022/10/01 00:14:05;;;;;;;;;3.00;3.00;;;;;13.26;81.97;100137.25;5077025;27;45310;-63
2022/10/01 00:16:31;;;;;;;;;4.00;4.00;;;;;13.32;80.97;100135.94;5077123;27;45535;-65
2022/10/01 00:18:56;;;;;;;;;4.00;4.00;;;;;13.29;81.01;100129.03;5076593;27;45421;-59
2022/10/01 00:21:28;;;;;;;;;2.33;2.33;;;;;13.32;81.28;100118.09;5092327;27;45308;-57
2022/10/01 00:23:55;;;;;;;;;3.00;3.00;;;;;13.38;81.41;100125.63;5077202;27;45412;-57
2022/10/01 00:26:26;;;;;;;;;3.33;3.33;;;;;13.40;81.46;100128.19;5076827;27;45492;-56
2022/10/01 00:28:58;;;;;;;;;4.67;4.67;;;;;13.42;80.95;100113.78;5076521;28;45499;-61
2022/10/01 00:31:24;;;;;;;;;2.33;2.33;;;;;13.41;81.02;100111.19;5076837;27;45525;-63
2022/10/01 00:33:54;;;;;;;;;3.00;3.00;;;;;13.40;81.59;100117.50;5076691;27;45469;-64
2022/10/01 00:36:20;;;;;;;;;1.33;1.33;;;;;13.45;81.96;100129.56;5092782;27;45397;-62
2022/10/01 00:38:47;;;;;;;;;3.00;3.00;;;;;13.46;82.02;100117.06;5076897;27;45270;-58
2022/10/01 00:41:14;;;;;;;;;3.00;3.00;;;;;13.48;81.67;100110.63;5058648;27;45189;-64
2022/10/01 00:43:45;;;;;;;;;1.33;1.33;;;;;13.48;83.00;100102.63;5056503;28;45456;-56
2022/10/01 00:46:40;;;;;;;;;3.00;3.00;;;;;13.50;83.47;100100.69;5056055;28;45342;-64
2022/10/01 00:49:15;;;;;;;;;2.00;2.00;;;;;13.40;84.05;100088.97;5055950;28;45354;-61
2022/10/01 00:51:46;;;;;;;;;1.33;1.33;;;;;13.37;83.43;100089.22;5056316;28;45377;-63
2022/10/01 00:54:16;;;;;;;;;2.00;2.00;;;;;13.37;83.34;100086.53;5056323;28;45481;-63
2022/10/01 00:56:43;;;;;;;;;3.00;3.00;;;;;13.33;84.61;100066.38;5072422;28;45270;-65
2022/10/01 00:59:11;;;;;;;;;3.00;3.00;;;;;13.39;84.25;100089.94;5075220;28;45544;-64
2022/10/01 01:01:38;;;;;;;;;1.00;1.00;;;;;13.38;85.09;100093.59;5076601;27;45414;-59
2022/10/01 01:04:15;;;;;;;;;2.00;2.00;;;;;13.39;85.44;100089.94;5076863;27;45483;-67
2022/10/01 01:06:46;;;;;;;;;2.33;2.33;;;;;13.34;88.75;100089.47;5077016;27;45460;-62
2022/10/01 01:09:12;;;;;;;;;1.00;1.00;;;;;13.16;89.80;100061.44;5077227;27;45504;-57
2022/10/01 01:11:47;;;;;;;;;2.00;2.00;;;;;13.28;89.93;100095.25;5092944;27;45418;-62
2022/10/01 01:14:19;;;;;;;;;2.33;2.33;;;;;13.23;89.67;100084.91;5077341;27;45357;-53
2022/10/01 01:16:58;;;;;;;;;4.33;3.00;;;;;13.21;89.32;100091.34;5093249;27;45609;-58
2022/10/01 01:19:56;;;;;;;;;2.00;2.00;;;;;13.21;89.47;100091.34;5076194;27;46535;-59
2022/10/01 01:22:25;;;;;;;;;2.00;2.00;;;;;13.23;89.07;100097.41;5076397;27;45227;-59
2022/10/01 01:25:02;;;;;;;;;3.67;3.00;;;;;13.26;90.23;100105.19;5076156;27;45365;-62
2022/10/01 01:27:56;;;;;;;;;3.00;1.67;;;;;13.23;89.57;100084.06;5074780;28;45356;-64
2022/10/01 01:30:22;;;;;;;;;2.00;2.00;;;;;13.25;89.03;100076.78;5075741;27;45972;-58
2022/10/01 01:32:55;;;;;;;;;2.00;2.00;;;;;13.22;90.16;100061.00;5075797;27;45243;-60
2022/10/01 01:35:30;;;;;;;;;1.67;1.00;;;;;13.31;89.43;100068.34;5076586;27;45369;-61
2022/10/01 01:38:02;;;;;;;;;2.00;2.00;;;;;13.31;89.38;100044.28;5092314;27;45310;-60
2022/10/01 01:40:30;;;;;;;;;1.33;1.33;;;;;13.35;89.44;100045.75;5068454;27;46039;-63
2022/10/01 01:42:57;;;;;;;;;0.00;0.00;;;;;13.40;88.66;100053.41;5055707;28;45492;-63
2022/10/01 01:45:27;;;;;;;;;2.00;2.00;;;;;13.43;89.03;100054.03;5054321;28;45348;-64
2022/10/01 01:47:55;;;;;;;;;2.00;2.00;;;;;13.46;88.87;100053.81;5055809;28;45339;-61
2022/10/01 01:50:27;;;;;;;;;1.00;1.00;;;;;13.40;88.45;100046.25;5055157;28;46467;-59
2022/10/01 01:52:53;;;;;;;;;1.00;1.00;;;;;13.50;88.20;100055.25;5055122;28;45322;-61
2022/10/01 01:55:22;;;;;;;;;2.33;1.00;;;;;13.51;88.35;100040.94;5055470;28;45257;-60
2022/10/01 01:57:48;;;;;;;;;0.00;0.00;;;;;13.57;88.15;100045.81;5065165;28;45436;-62
2022/10/01 02:00:14;;;;;;;;;0.67;0.67;;;;;13.58;88.00;100047.53;5078888;27;46284;-59
2022/10/01 02:02:45;;;;;;;;;0.67;0.67;;;;;13.63;88.03;100065.00;5078717;27;45233;-58
2022/10/01 02:05:16;;;;;;;;;2.67;1.67;;;;;13.66;87.32;100048.72;5078843;27;45310;-62
2022/10/01 02:08:00;;;;;;;;;1.33;1.33;;;;;13.61;87.37;100040.22;5079186;27;45242;-64
2022/10/01 02:11:07;;;;;;;;;0.00;0.00;;;;;13.71;87.40;100042.06;5094478;27;45313;-58
2022/10/01 02:13:59;;;;;;;;;1.00;1.00;;;;;13.73;87.26;100055.31;5078671;27;45280;-65
2022/10/01 02:16:50;;;;;;;;;3.00;1.00;;;;;13.76;88.12;100057.75;5078732;27;45904;-64
2022/10/01 02:19:32;;;;;;;;;0.00;0.00;;;;;13.79;87.08;100044.13;5078693;27;45514;-62
2022/10/01 02:22:09;;;;;;;;;0.00;0.00;;;;;13.81;86.37;100044.91;5078477;28;46461;-64
2022/10/01 02:24:46;;;;;;;;;0.00;0.00;;;;;13.84;87.32;100033.94;5078896;28;45398;-57
2022/10/01 02:27:20;;;;;;;;;0.00;0.00;;;;;13.88;87.05;100032.72;5078545;27;45424;-60
2022/10/01 02:29:48;;;;;;;;;0.00;0.00;;;;;13.84;86.56;100032.13;5078770;27;45447;-64
2022/10/01 02:32:17;;;;;;;;;0.00;0.00;;;;;13.90;87.15;100035.28;5078218;27;45416;-64
2022/10/01 02:34:46;;;;;;;;;1.00;0.00;;;;;13.91;86.98;100032.47;5078324;27;45259;-58
2022/10/01 02:37:12;;;;;;;;;0.00;0.00;;;;;13.88;86.76;100027.38;5078759;27;45443;-58
2022/10/01 02:39:40;;;;;;;;;0.00;0.00;;;;;13.98;86.25;100028.38;5094817;27;45314;-64
2022/10/01 02:42:12;;;;;;;;;0.00;0.00;;;;;14.01;86.42;100021.91;5060481;28;46891;-61
2022/10/01 02:44:42;;;;;;;;;0.00;0.00;;;;;14.03;86.50;100022.66;5058066;28;45441;-65
2022/10/01 02:47:25;;;;;;;;;1.00;0.00;;;;;14.09;86.39;100025.69;5058076;28;45476;-63
2022/10/01 02:49:52;;;;;;;;;0.00;0.00;;;;;14.13;86.05;100031.66;5058147;28;45247;-64
2022/10/01 02:52:38;;;;;;;;;0.00;0.00;;;;;14.14;86.19;100011.94;5057049;28;45467;-66
2022/10/01 02:55:09;;;;;;;;;1.00;0.00;;;;;14.19;85.70;99999.03;5063020;28;45581;-65
2022/10/01 02:57:36;;;;;;;;;0.00;0.00;;;;;14.21;85.78;99998.97;5066128;28;45276;-66
2022/10/01 03:00:10;;;;;;;;;0.00;0.00;;;;;14.27;85.95;100006.47;5078352;28;45958;-65
2022/10/01 03:02:36;;;;;;;;;0.00;0.00;;;;;14.28;85.60;99994.78;5093635;27;45380;-58
2022/10/01 03:05:02;;;;;;;;;0.67;0.00;;;;;14.28;85.78;99986.78;5093737;27;45296;-61
2022/10/01 03:07:30;;;;;;;;;0.00;0.00;;;;;14.27;85.79;99987.75;5077986;27;45406;-62
2022/10/01 03:09:56;;;;;;;;;0.00;0.00;;;;;14.32;85.74;99988.22;5077704;27;45433;-59
2022/10/01 03:12:22;;;;;;;;;1.33;0.00;;;;;14.31;85.97;99976.66;5077568;27;45470;-65
2022/10/01 03:14:49;;;;;;;;;0.00;0.00;;;;;14.33;85.98;99981.91;5093300;27;45557;-65
2022/10/01 03:17:15;;;;;;;;;1.00;0.00;;;;;14.36;86.10;99987.84;5077918;27;45299;-64
2022/10/01 03:19:41;;;;;;;;;0.00;0.00;;;;;14.35;85.98;99977.28;5094729;27;45672;-66
2022/10/01 03:22:08;;;;;;;;;0.00;0.00;;;;;14.36;86.12;99990.53;5078130;27;45993;-66
2022/10/01 03:24:33;;;;;;;;;0.00;0.00;;;;;14.43;86.58;99985.53;5077907;28;45260;-64
2022/10/01 03:26:59;;;;;;;;;0.00;0.00;;;;;14.44;86.37;99981.91;5077728;27;45365;-63
2022/10/01 03:29:25;;;;;;;;;0.00;0.00;;;;;14.44;86.03;99981.91;5077861;27;45353;-64
2022/10/01 03:31:52;;;;;;;;;0.00;0.00;;;;;14.49;86.01;99982.38;5093083;27;47697;-57
2022/10/01 03:34:18;;;;;;;;;1.00;0.00;;;;;14.52;85.78;99974.09;5077239;27;45477;-63
2022/10/01 03:36:44;;;;;;;;;2.33;0.00;;;;;14.55;85.60;99979.19;5077380;27;45404;-60
2022/10/01 03:39:09;;;;;;;;;0.00;0.00;;;;;14.55;85.53;99984.53;5077879;28;45234;-65
2022/10/01 03:41:35;;;;;;;;;0.00;0.00;;;;;14.60;85.97;99974.34;5067553;27;46084;-64
2022/10/01 03:44:01;;;;;;;;;0.00;0.00;;;;;14.63;85.52;99971.41;5057016;28;45228;-62
2022/10/01 03:46:27;;;;;;;;;0.33;0.33;;;;;14.64;86.19;99983.81;5057077;28;45271;-62
2022/10/01 03:48:54;;;;;;;;;0.00;0.00;;;;;14.65;86.56;99979.28;5057382;28;45239;-62
2022/10/01 03:51:19;;;;;;;;;0.00;0.00;;;;;14.62;87.60;99968.84;5056904;28;46019;-59
2022/10/01 03:53:46;;;;;;;;;0.00;0.00;;;;;14.62;87.87;99972.38;5072184;27;45402;-54
2022/10/01 03:56:12;;;;;;;;;0.00;0.00;;;;;14.59;87.90;99969.97;5057189;28;45437;-59
2022/10/01 03:58:37;;;;;;;;;0.00;0.00;;;;;14.61;87.83;99989.41;5070420;28;45430;-56
2022/10/01 04:01:03;;;;;;;;;0.00;0.00;;;;;14.64;88.00;100010.56;5076882;27;45373;-63
2022/10/01 04:03:29;;;;;;;;;0.00;0.00;;;;;14.67;88.14;100012.97;5077156;27;45428;-59
2022/10/01 04:05:55;;;;;;;;;0.00;0.00;;;;;14.67;88.51;100015.66;5076917;27;45313;-64
2022/10/01 04:08:20;;;;;;;;;0.00;0.00;;;;;14.68;88.48;100019.19;5077262;27;45325;-64
2022/10/01 04:10:45;;;;;;;;;0.00;0.00;;;;;14.70;88.92;100014.53;5076876;27;46199;-59
2022/10/01 04:13:11;;;;;;;;;0.00;0.00;;;;;14.68;88.79;100020.03;5092505;27;54499;-65
2022/10/01 04:15:37;;;;;;;;;0.00;0.00;;;;;14.57;89.06;100004.00;5076745;27;45329;-62
2022/10/01 04:18:04;;;;;;;;;0.00;0.00;;;;;14.74;87.64;100038.28;5076931;27;45544;-59
2022/10/01 04:20:34;;;;;;;;;0.00;0.00;;;;;14.80;88.47;100038.75;5075786;27;46156;-60
2022/10/01 04:23:00;;;;;;;;;0.00;0.00;;;;;14.74;89.75;100034.75;5076651;27;45386;-61
2022/10/01 04:25:26;;;;;;;;;0.00;0.00;;;;;14.79;90.50;100053.94;5092534;27;45537;-64
2022/10/01 04:27:58;;;;;;;;;0.00;0.00;;;;;14.76;91.36;100046.19;5076694;28;45576;-64
2022/10/01 04:30:26;;;;;;;;;0.00;0.00;;;;;14.74;90.06;100045.47;5076437;27;47128;-65
2022/10/01 04:32:52;;;;;;;;;0.00;0.00;;;;;14.83;90.93;100063.41;5076615;27;45394;-61
2022/10/01 04:35:18;;;;;;;;;0.00;0.00;;;;;14.83;90.47;100066.09;5076359;27;45300;-61
2022/10/01 04:37:43;;;;;;;;;0.00;0.00;;;;;14.86;90.25;100070.38;5077240;27;45263;-60
2022/10/01 04:40:12;;;;;;;;;0.00;0.00;;;;;14.87;91.84;100064.88;5077560;27;45245;-66
2022/10/01 04:42:39;;;;;;;;;0.00;0.00;;;;;14.89;91.11;100065.63;5062369;27;45388;-61
2022/10/01 04:45:05;;;;;;;;;0.00;0.00;;;;;14.94;90.28;100075.94;5056519;28;45278;-60
2022/10/01 04:47:31;;;;;;;;;0.67;0.00;;;;;14.89;90.23;100062.09;5056691;28;45224;-64
2022/10/01 04:49:56;;;;;;;;;1.00;0.00;;;;;14.96;90.26;100079.31;5056415;28;46205;-65
2022/10/01 04:52:22;;;;;;;;;0.00;0.00;;;;;15.01;89.94;100095.88;5056279;28;45321;-63
2022/10/01 04:54:51;;;;;;;;;0.00;0.00;;;;;15.09;89.46;100096.09;5056503;28;45453;-54
2022/10/01 04:57:16;;;;;;;;;0.00;0.00;;;;;15.14;89.48;100098.41;5055610;28;45461;-60
2022/10/01 04:59:42;;;;;;;;;0.00;0.00;;;;;15.16;89.27;100094.63;5056027;28;45401;-61
2022/10/01 05:02:07;;;;;;;;;0.00;0.00;;;;;15.17;88.63;100088.28;5071636;27;45339;-62
2022/10/01 05:04:32;;;;;;;;;0.00;0.00;;;;;15.24;88.80;100100.19;5056314;28;45338;-64
2022/10/01 05:06:58;;;;;;;;;0.00;0.00;;;;;15.26;88.49;100097.38;5056613;28;45587;-61
2022/10/01 05:09:23;;;;;;;;;0.00;0.00;;;;;15.30;88.41;100114.91;5071662;28;48025;-66
2022/10/01 05:11:50;;;;;;;;;0.00;0.00;;;;;15.31;87.86;100114.75;5056209;28;45749;-64
2022/10/01 05:14:19;;;;;;;;;0.00;0.00;;;;;15.30;88.41;100097.00;5056554;28;45325;-68
2022/10/01 05:16:45;;;;;;;;;0.00;0.00;;;;;15.35;88.17;100110.84;5056684;28;45374;-56
2022/10/01 05:19:10;;;;;;;;;0.00;0.00;;;;;15.35;88.14;100116.19;5054656;28;45460;-57
2022/10/01 05:21:36;;;;;;;;;0.00;0.00;;;;;15.38;88.00;100116.94;5055828;28;45355;-64
2022/10/01 05:24:01;;;;;;;;;0.00;0.00;;;;;15.41;87.54;100124.72;5055830;28;45321;-63
2022/10/01 05:26:28;;;;;;;;;0.00;0.00;;;;;15.42;87.66;100118.38;5055727;27;45666;-60
2022/10/01 05:28:53;;;;;;;;;0.00;0.00;;;;;15.39;87.34;100111.47;5055159;27;45382;-60
2022/10/01 05:31:19;;;;;;;;;0.00;0.00;;;;;15.43;87.51;100112.88;5056905;28;45312;-65
2022/10/01 05:33:44;;;;;;;;;0.00;0.00;;;;;15.43;87.24;100130.81;5074629;27;45259;-61
2022/10/01 05:36:10;;;;;;;;;0.00;0.00;;;;;15.45;87.41;100129.69;5059144;28;45674;-59
2022/10/01 05:38:36;;;;;;;;;0.00;0.00;;;;;15.46;86.89;100125.19;5058958;28;45893;-59
2022/10/01 05:41:04;;;;;;;;;0.00;0.00;;;;;15.48;87.13;100129.44;5058516;27;45400;-64
2022/10/01 05:43:30;;;;;;;;;0.00;0.00;;;;;15.48;86.80;100133.94;5060843;28;45369;-62
2022/10/01 05:45:59;;;;;;;;;0.00;0.00;;;;;15.52;86.75;100151.47;5058804;28;45568;-57
2022/10/01 05:48:24;;;;;;;;;0.00;0.00;;;;;15.53;86.51;100159.38;5058197;28;45538;-63
2022/10/01 05:50:53;;;;;;;;;0.00;0.00;;;;;15.55;86.42;100161.94;5059244;28;45240;-65
2022/10/01 05:53:19;;;;;;;;;0.00;0.00;;;;;15.55;86.61;100170.81;5059275;28;45362;-60
2022/10/01 05:55:45;;;;;;;;;0.00;0.00;;;;;15.53;86.45;100163.91;5058926;28;45401;-63
2022/10/01 05:58:12;;;;;;;;;0.33;0.00;;;;;15.56;86.33;100169.84;5068464;28;45975;-63
2022/10/01 06:00:40;;;;;;;;;0.00;0.00;;;;;15.59;85.61;100180.34;5094685;27;45343;-57
2022/10/01 06:03:05;;;;;;;;;0.00;0.00;;;;;15.61;85.71;100183.72;5094400;27;45285;-57
2022/10/01 06:05:33;;;;;;;;;0.00;0.00;;;;;15.58;85.41;100185.78;5079081;27;45282;-59
2022/10/01 06:07:59;;;;;;;;;0.00;0.00;;;;;15.69;84.96;100196.50;5094077;27;46190;-57
2022/10/01 06:10:29;;;;;;;;;0.00;0.00;;;;;15.67;85.16;100189.59;5078819;27;45349;-58
2022/10/01 06:13:01;;;;;;;;;0.00;0.00;;;;;15.69;84.65;100193.84;5079107;27;45274;-67
2022/10/01 06:15:27;;;;;;;;;0.00;0.00;;;;;15.74;84.60;100210.38;5078949;27;45551;-60
2022/10/01 06:17:53;;;;;;;;;0.00;0.00;;;;;15.71;84.30;100209.78;5078457;27;46628;-60
2022/10/01 06:20:19;;;;;;;;;0.00;0.00;;;;;15.69;84.30;100201.88;5078616;27;45326;-59
2022/10/01 06:22:52;;;;;;;;;0.00;0.00;;;;;15.79;84.10;100226.09;5078462;27;45290;-65
2022/10/01 06:25:18;;;;;;;;;0.00;0.00;;;;;15.78;83.48;100211.84;5079046;27;45379;-63
2022/10/01 06:27:43;;;;;;;;;0.00;0.00;;;;;15.84;82.86;100221.19;5078424;27;45442;-64
2022/10/01 06:30:09;;;;;;;;;0.00;0.00;;;;;15.85;82.52;100223.72;5080152;27;45423;-64
2022/10/01 06:32:35;;;;;;;;;0.00;0.00;;;;;15.81;82.57;100214.25;5097015;27;45254;-61
2022/10/01 06:35:01;;;;;;;;;0.33;0.33;;;;;15.87;82.50;100220.91;5079812;27;45203;-60
2022/10/01 06:37:27;;;;;;;;;2.00;0.00;;;;;15.87;82.24;100221.78;5095149;27;46213;-59
2022/10/01 06:39:53;;;;;;;;;0.00;0.00;;;;;15.90;81.84;100232.25;5077771;28;45358;-58
2022/10/01 06:42:18;;;;;;;;;4.00;0.00;;;;;15.90;81.23;100229.59;5073237;27;45310;-58
2022/10/01 06:44:43;;;;;;;;;1.00;0.00;;;;;15.88;80.84;100234.19;5057713;28;45513;-62
2022/10/01 06:47:09;;;;;;;;;0.00;0.00;;;;;15.95;80.85;100229.19;5057766;27;45366;-63
2022/10/01 06:49:34;;;;;;;;;0.00;0.00;;;;;15.97;80.61;100234.41;5057912;28;45273;-63
2022/10/01 06:54:44;;;;;;;;;0.00;0.00;;;;;15.99;79.72;100229.78;5057178;28;45274;-61
2022/10/01 06:57:09;;;;;;;;;1.67;0.00;;;;;15.97;79.80;100237.09;5060126;28;46307;-60
2022/10/01 06:59:37;;;;;;;;;0.50;0.50;;;;;15.90;79.37;100224.22;5094220;27;45880;-63
2022/10/01 07:02:03;;;;;;;;;0.00;0.00;;;;;16.00;79.17;100242.19;5078105;27;45398;-64
2022/10/01 07:04:29;;;;;;;;;0.33;0.33;;;;;16.05;79.45;100254.25;5078035;27;45434;-63
2022/10/01 07:06:56;;;;;;;;;3.33;0.00;;;;;16.07;78.68;100248.75;5077977;27;45384;-63
2022/10/01 07:09:24;;;;;;;;;0.00;0.00;;;;;16.06;78.18;100252.44;5078409;27;45428;-59
2022/10/01 07:11:51;;;;;;;;;1.00;1.00;;;;;16.12;78.00;100262.63;5093603;27;45349;-62
2022/10/01 07:14:20;;;;;;;;;2.00;0.67;;;;;16.06;78.28;100263.16;5078324;27;45316;-62
2022/10/01 07:16:46;;;;;;;;;0.00;0.00;;;;;16.15;77.24;100278.50;5077708;27;46029;-58
2022/10/01 07:19:14;;;;;;;;;0.00;0.00;;;;;16.19;76.94;100287.97;5077968;27;45181;-60
2022/10/01 07:21:39;;;;;;;;;1.00;1.00;;;;;16.20;76.73;100290.53;5077623;28;45662;-59
2022/10/01 07:24:05;;;;;;;;;0.00;0.00;;;;;16.16;76.43;100280.19;5093593;27;45535;-58
2022/10/01 07:26:30;;;;;;;;;0.00;0.00;;;;;16.18;76.37;100272.84;5077415;28;45349;-58
2022/10/01 07:28:56;;;;;;;;;2.33;1.00;;;;;16.25;75.90;100292.81;5077992;27;45385;-59
2022/10/01 07:31:23;;;;;;;;;2.00;1.00;;;;;16.35;76.31;100312.53;5077578;28;45732;-57
2022/10/01 07:33:49;;;;;;;;;0.00;0.00;;;;;16.37;75.93;100307.88;5077832;27;45298;-60
2022/10/01 07:36:14;;;;;;;;;1.00;1.00;;;;;16.41;76.17;100316.53;5093170;27;46002;-60
2022/10/01 07:38:42;;;;;;;;;3.67;1.00;;;;;16.44;76.25;100319.81;5077866;28;45435;-60
2022/10/01 07:41:08;;;;;;;;;3.33;2.00;;;;;16.41;76.31;100309.34;5077910;27;45417;-60
2022/10/01 07:43:35;;;;;;;;;2.00;0.00;;;;;16.51;76.87;100320.97;5087688;27;45402;-57
2022/10/01 07:46:02;;;;;;;;;0.00;0.00;;;;;16.54;77.01;100322.56;5077056;27;45457;-60
2022/10/01 07:48:28;;;;;;;;;2.00;0.00;;;;;16.57;76.86;100316.94;5076249;28;45855;-59
2022/10/01 07:50:56;;;;;;;;;2.00;1.00;;;;;16.63;76.98;100320.91;5076162;27;45408;-64
2022/10/01 07:53:23;;;;;;;;;3.00;0.00;;;;;16.65;76.74;100335.91;5092928;27;45563;-58
2022/10/01 07:55:48;;;;;;;;;1.33;1.00;;;;;16.65;76.56;100330.53;5075552;27;45290;-59
2022/10/01 07:58:14;;;;;;;;;2.00;0.00;;;;;16.51;75.99;100320.13;5075375;28;45250;-58
2022/10/01 08:00:42;;;;;;;;;1.00;0.00;;;;;16.68;75.60;100341.06;5077107;27;45489;-55
2022/10/01 08:03:10;;;;;;;;;1.00;1.00;;;;;16.75;75.35;100346.75;5092958;27;45529;-65
2022/10/01 08:05:38;;;;;;;;;2.00;1.00;;;;;16.77;74.81;100344.78;5076487;27;45357;-60
2022/10/01 08:08:07;;;;;;;;;1.00;1.00;;;;;16.74;74.49;100340.53;5092369;27;45188;-66
2022/10/01 08:10:35;;;;;;;;;1.00;1.00;;;;;16.79;73.68;100348.19;5078269;28;45265;-65
2022/10/01 08:13:07;;;;;;;;;0.00;0.00;;;;;16.79;73.39;100345.50;5078991;27;45553;-62
2022/10/01 08:15:34;;;;;;;;;1.00;1.00;;;;;16.87;73.09;100356.44;5077041;28;47235;-64
2022/10/01 08:18:03;;;;;;;;;1.67;1.00;;;;;16.90;73.19;100364.22;5077299;28;45422;-62
2022/10/01 08:20:29;;;;;;;;;1.33;0.67;;;;;16.94;72.33;100364.84;5077221;27;45354;-57
2022/10/01 08:23:03;;;;;;;;;0.00;0.00;;;;;16.93;72.29;100360.44;5077876;28;45544;-63
2022/10/01 08:25:29;;;;;;;;;1.00;1.00;;;;;16.94;72.10;100365.69;5077215;27;46115;-62
2022/10/01 08:27:54;;;;;;;;;2.33;1.00;;;;;16.95;72.29;100364.69;5077061;27;45227;-64
2022/10/01 08:30:19;;;;;;;;;9.67;8.67;;;;;16.88;72.02;100366.19;5092757;27;45196;-62
2022/10/01 08:32:45;;;;;;;;;1.33;0.67;;;;;16.95;72.76;100378.13;5092839;27;45593;-62
2022/10/01 08:35:11;;;;;;;;;2.00;1.00;;;;;16.92;71.42;100375.69;5076077;27;46146;-58
2022/10/01 08:37:36;;;;;;;;;1.33;1.33;;;;;16.91;72.02;100365.91;5092819;27;45331;-59
2022/10/01 08:40:02;;;;;;;;;2.67;0.33;;;;;16.99;71.14;100384.94;5077367;27;45385;-65
2022/10/01 08:42:55;;;;;;;;;1.67;1.67;;;;;17.04;70.76;100398.81;5077577;27;45533;-64
2022/10/01 08:45:39;;;;;;;;;4.00;1.00;;;;;17.03;71.13;100393.56;5056968;28;45473;-60
2022/10/01 08:48:21;;;;;;;;;4.00;2.00;;;;;17.11;70.58;100399.16;5057373;28;45286;-61
2022/10/01 08:51:08;;;;;;;;;2.33;2.00;;;;;17.14;69.74;100398.03;5057975;28;45469;-61
2022/10/01 08:53:47;;;;;;;;;4.00;2.00;;;;;17.17;70.00;100408.50;5057575;28;45422;-58
2022/10/01 08:56:29;;;;;;;;;5.33;3.00;;;;;17.20;70.78;100414.50;5057020;28;45646;-61
2022/10/01 08:58:58;;;;;;;;;0.00;0.00;;;;;17.08;70.46;100392.22;5089852;27;45483;-58
2022/10/01 09:01:28;;;;;;;;;3.00;1.00;;;;;17.29;70.51;100423.56;5092965;27;45342;-58
2022/10/01 09:03:54;;;;;;;;;1.00;1.00;;;;;17.29;70.59;100426.25;5092964;27;45665;-61
2022/10/01 09:06:24;;;;;;;;;3.67;2.00;;;;;17.34;70.36;100426.72;5077757;27;45487;-58
2022/10/01 09:09:14;;;;;;;;;2.00;2.00;;;;;17.38;71.03;100433.53;5080463;27;45416;-57
2022/10/01 09:11:54;;;;;;;;;2.33;2.00;;;;;17.42;71.03;100443.03;5080442;28;45326;-58
2022/10/01 09:14:39;;;;;;;;;5.67;2.00;;;;;17.48;70.32;100441.66;5080377;27;45410;-58
2022/10/01 09:17:31;;;;;;;;;1.00;1.00;;;;;17.51;70.13;100436.84;5079771;27;46402;-67
2022/10/01 09:20:19;;;;;;;;;2.00;1.00;;;;;17.51;70.73;100439.53;5095258;27;45463;-65
2022/10/01 09:23:03;;;;;;;;;2.00;2.00;;;;;17.55;70.17;100451.72;5079401;27;45382;-60
2022/10/01 09:25:29;;;;;;;;;2.33;1.33;;;;;17.61;69.95;100459.28;5079857;27;45485;-59
2022/10/01 09:28:12;;;;;;;;;2.00;2.00;;;;;17.63;70.36;100451.06;5078893;27;45397;-62
2022/10/01 09:30:46;;;;;;;;;1.00;1.00;;;;;17.53;70.81;100434.03;5078982;27;45463;-65
2022/10/01 09:33:17;;;;;;;;;3.67;1.33;;;;;17.74;70.03;100468.97;5077882;28;45413;-63
2022/10/01 09:36:00;;;;;;;;;3.00;1.00;;;;;17.79;70.33;100472.09;5079094;28;45251;-62
2022/10/01 09:38:37;;;;;;;;;2.00;1.67;;;;;17.85;69.82;100474.28;5078969;27;46359;-59
2022/10/01 09:41:02;;;;;;;;;5.00;2.67;;;;;17.87;69.74;100465.06;5079195;27;45247;-64
2022/10/01 09:43:31;;;;;;;;;6.67;2.00;;;;;17.87;69.72;100470.47;5076092;27;45552;-63
2022/10/01 09:45:56;;;;;;;;;0.00;0.00;;;;;17.86;69.63;100474.13;5058705;28;45406;-59
2022/10/01 09:48:28;;;;;;;;;1.00;1.00;;;;;17.87;68.61;100481.22;5058790;28;46018;-62
2022/10/01 09:51:01;;;;;;;;;3.00;1.00;;;;;17.92;69.02;100494.25;5058941;28;45327;-65
2022/10/01 09:54:11;;;;;;;;;3.33;1.00;;;;;17.96;68.99;100484.91;5058620;28;45344;-58
2022/10/01 09:56:42;;;;;;;;;5.00;1.00;;;;;17.99;68.46;100479.28;5058608;28;45465;-57
2022/10/01 09:59:32;;;;;;;;;2.00;1.00;;;;;17.98;68.39;100493.72;5077711;28;45845;-62
2022/10/01 10:02:00;;;;;;;;;3.67;2.00;;;;;18.04;68.55;100503.94;5078085;27;45396;-59
2022/10/01 10:04:26;;;;;;;;;3.00;1.33;;;;;18.00;67.92;100489.06;5079254;27;45259;-61
2022/10/01 10:07:00;;;;;;;;;3.67;2.00;;;;;18.02;68.53;100495.16;5077654;28;45545;-65
2022/10/01 10:09:31;;;;;;;;;1.00;1.00;;;;;18.13;67.85;100491.50;5094282;27;47704;-62
2022/10/01 10:11:58;;;;;;;;;3.00;1.00;;;;;18.16;67.79;100502.00;5078687;28;45318;-63
2022/10/01 10:14:32;;;;;;;;;2.00;1.00;;;;;18.12;67.69;100487.97;5078794;27;45507;-59
2022/10/01 10:17:05;;;;;;;;;4.00;1.00;;;;;18.27;67.20;100508.13;5077438;28;45461;-62
2022/10/01 10:19:32;;;;;;;;;4.00;1.33;;;;;18.38;66.43;100509.00;5078141;27;45840;-63
2022/10/01 10:22:10;;;;;;;;;1.00;1.00;;;;;18.51;66.56;100512.28;5078489;27;45427;-62
2022/10/01 10:24:36;;;;;;;;;1.33;1.33;;;;;18.54;65.87;100506.63;5079454;27;45272;-64
2022/10/01 10:27:05;;;;;;;;;5.00;2.00;;;;;18.58;66.11;100502.66;5079093;27;45348;-62
2022/10/01 10:29:35;;;;;;;;;1.00;1.00;;;;;18.76;65.25;100517.19;5078573;27;45347;-62
2022/10/01 10:32:24;;;;;;;;;2.00;2.00;;;;;18.80;64.04;100515.06;5078680;27;45257;-61
2022/10/01 10:34:51;;;;;;;;;5.67;3.67;;;;;18.92;64.36;100515.78;5078852;27;45309;-65
2022/10/01 10:37:27;;;;;;;;;6.33;2.00;;;;;19.07;63.95;100522.44;5094871;27;45355;-59
2022/10/01 10:39:53;;;;;;;;;3.67;2.00;;;;;19.00;63.54;100497.03;5078818;27;47905;-63
2022/10/01 10:42:21;;;;;;;;;3.00;1.67;;;;;19.14;62.92;100523.56;5094447;27;45358;-65
2022/10/01 10:44:49;;;;;;;;;4.00;3.00;;;;;19.25;63.01;100523.41;5067410;27;45737;-61
2022/10/01 10:47:18;;;;;;;;;10.00;1.67;;;;;19.30;62.24;100531.94;5058647;28;45285;-63
2022/10/01 10:49:45;;;;;;;;;4.00;2.33;;;;;19.38;62.45;100540.13;5057619;28;46150;-61
2022/10/01 10:52:32;;;;;;;;;3.00;2.00;;;;;19.42;62.28;100538.88;5057287;28;45677;-63
2022/10/01 10:55:00;;;;;;;;;2.67;1.67;;;;;19.45;61.57;100529.66;5057914;28;45393;-62
2022/10/01 10:57:30;;;;;;;;;2.33;2.00;;;;;19.56;62.39;100536.75;5061300;28;45305;-64
2022/10/01 10:59:55;;;;;;;;;1.00;1.00;;;;;19.65;60.14;100546.66;5078004;28;45396;-63
2022/10/01 11:02:24;;;;;;;;;2.00;1.00;;;;;19.72;58.97;100556.75;5078815;28;45244;-64
2022/10/01 11:04:51;;;;;;;;;3.00;0.33;;;;;19.74;59.97;100556.59;5076917;28;45290;-65
2022/10/01 11:07:22;;;;;;;;;2.00;2.00;;;;;19.83;60.45;100557.56;5078195;27;45482;-55
2022/10/01 11:10:09;;;;;;;;;3.00;3.00;;;;;19.85;59.38;100558.28;5077849;27;46436;-65
2022/10/01 11:12:50;;;;;;;;;3.00;3.00;;;;;19.92;58.54;100557.56;5078172;27;45244;-63
2022/10/01 11:15:33;;;;;;;;;1.75;1.25;;;;;19.94;58.80;100566.34;5077682;27;45376;-63
2022/10/01 11:18:31;;;;;;;;;6.50;2.25;;;;;19.98;58.65;100565.03;5078082;27;45761;-61
2022/10/01 11:21:24;;;;;;;;;5.00;1.00;;;;;20.07;57.86;100562.47;5078472;28;45445;-68
2022/10/01 11:24:24;;;;;;;;;5.00;2.00;;;;;20.10;57.67;100564.88;5078336;28;45864;-66
2022/10/01 11:27:22;;;;;;;;;4.50;3.25;;;;;20.16;57.95;100562.41;5076536;28;45565;-66
2022/10/01 11:30:00;;;;;;;;;5.67;1.33;;;;;20.14;58.43;100552.75;5078258;27;45335;-61
2022/10/01 11:32:38;;;;;;;;;3.33;2.00;;;;;20.17;57.96;100552.47;5093286;27;47629;-64
2022/10/01 11:35:10;;;;;;;;;5.00;2.00;;;;;20.22;56.63;100560.97;5067768;27;47551;-58
2022/10/01 11:37:48;;;;;;;;;1.00;1.00;;;;;20.19;56.85;100555.88;5057169;28;45331;-58
2022/10/01 11:40:25;;;;;;;;;1.33;1.33;;;;;20.15;56.24;100573.38;5057058;28;45255;-62
2022/10/01 11:42:56;;;;;;;;;3.00;1.33;;;;;20.01;57.56;100553.94;5056570;28;45498;-60
2022/10/01 11:45:31;;;;;;;;;6.00;2.00;;;;;20.05;57.15;100559.88;5057465;28;45529;-58